LTBI/ESK METAR and TAF weather

Enter ICAO airport designator
Station Type Date Time Source
LTBI METAR 2020/06/02 14:50 UTC NOAA

LTBI 021450Z 30006KT 270V340 9999 BKN030 15/08 Q1008 NOSIG RMK RWY08 32007KT


Station Type Date Time Source
LTBI Decoded METAR 2020/06/02 14:50 UTC NOAA

Eskisehir, Turkey (LTBI) 39-47N 030-34E 785M
Jun 02, 2020 - 10:50 AM EDT / 2020.06.02 1450 UTC
Wind: from the WNW (300 degrees) at 7 MPH (6 KT) (direction variable):0
Visibility: greater than 7 mile(s):0
Sky conditions: mostly cloudy
Temperature: 59 F (15 C)
Dew Point: 46 F (8 C)
Relative Humidity: 62%
Pressure (altimeter): 29.77 in. Hg (1008 hPa)
ob: LTBI 021450Z 30006KT 270V340 9999 BKN030 15/08 Q1008 NOSIG RMK RWY08 32007KT
cycle: 15

Station Type Date Time Source
LTBI TAF 2012/05/11 09:09 UTC NOAA

TAF LTBI 110740Z 1109/1121 VRB02KT 6000 -SHRA BKN030 BKN090
TEMPO 1112/1116 33015KT 4000 -TSRA FEW025CB BKN030

Example: see airport list